Portada
METAR-TAF:

METAR-TAF

Aeropuertos :

Ghriss, Argelia

latitud: 35-12N, longitud: 000-08E, altitud: 514 m

Observación

El informe se hizo hace 43 minutos, a las 17:00 UTC
Viento 11 kt del norte-noreste
Temperatura 24°C
Humedad 34%
Presión 1021 hPa
Visibilidad 10 km o más
Nubes dispersas a una altura de 2600 ft

METAR: DAOV 261700Z 02011KT 9999 SCT026 24/07 Q1021

Hora: 18:43 (17:43 UTC)

Pronóstico

El informe se hizo hace 3 horas y 43 minutos, a las 14:00 UTC
Pronóstico válido del 26 a las 15 UTC al 26 a las 24 UTC
Viento 10 kt del norte-noreste
Visibilidad 10 km o más
Cielo nuboso a una altura de 2600 ft
Evolucionando progresivamente
del 26 a las 20 UTC al 26 a las 22 UTC
Viento 2 kt con dirección variable

TAF: DAOV 261400Z 2615/2624 02010KT 9999 BKN026 BECMG 2620/2622 VRB02KT

Observaciones y pronósticos meteorológicos de más de 4000 aeropuertos (mensajes METAR y TAF).

Los puntos amarillos y rojos representan las estaciones disponibles.

Ponga el ratón en el punto deseado para ver el nombre de la estación.

Haga clic para ver las observaciones y los pronósticos meteorológicos.

Para cambiar el mapa : haga clic en los botones verdes con una cruz de color negro para hacer un zoom, en el botón verde con un guión para alejar o en las flechas verdes para mapas adyacentes.


METAR-TAF: